Time;durP1;ratioP1;P1;durP2;ratioP2;P2;SDS_P1;SDS_P2;PMS_P1;PMS_P2;Temp;Humidity;BMP_temperature;BMP_pressure;BME280_temperature;BME280_humidity;BME280_pressure;Samples;Min_cycle;Max_cycle;Signal;HPM_P1;HPM_P2
2021/09/13 00:00:11;;;;;;;;;;;;;;;;;;5060618;28;19924;-89
2021/09/13 00:02:41;;;;;;;;;;;;;;;;;;5057047;28;19936;-90
2021/09/13 00:05:10;;;;;;;;;;;;;;;;;;5047512;28;19932;-89
2021/09/13 00:07:39;;;;;;;;;;;;;;;;;;5035361;28;19936;-89
2021/09/13 00:10:10;;;;;;;;;;;;;;;;;;5039093;28;19925;-88
2021/09/13 00:12:40;;;;;;;;;;;;;;;;;;5039443;28;19972;-89
2021/09/13 00:15:10;;;;;;;;;;;;;;;;;;5051486;28;19940;-89
2021/09/13 00:17:38;;;;;;;;;;;;;;;;;;5068278;28;19932;-90
2021/09/13 00:20:08;;;;;;;;;;;;;;;;;;5065869;28;19935;-89
2021/09/13 00:22:39;;;;;;;;;;;;;;;;;;5033859;28;20309;-89
2021/09/13 00:25:09;;;;;;;;;;;;;;;;;;5036359;28;20409;-89
2021/09/13 00:27:38;;;;;;;;;;;;;;;;;;5039053;28;19936;-88
2021/09/13 00:30:07;;;;;;;;;;;;;;;;;;5033554;28;20317;-89
2021/09/13 00:32:36;;;;;;;;;;;;;;;;;;5037307;28;20296;-88
2021/09/13 00:35:10;;;;;;;;;;;;;;;;;;5038673;28;20071;-89
2021/09/13 00:37:40;;;;;;;;;;;;;;;;;;5039299;28;20404;-89
2021/09/13 00:40:10;;;;;;;;;;;;;;;;;;5038289;28;19940;-90
2021/09/13 00:42:39;;;;;;;;;;;;;;;;;;5040783;28;19992;-89
2021/09/13 00:45:09;;;;;;;;;;;;;;;;;;5035745;28;19925;-89
2021/09/13 00:47:37;;;;;;;;;;;;;;;;;;5041570;28;19925;-89
2021/09/13 00:50:06;;;;;;;;;;;;;;;;;;5055888;28;19936;-92
2021/09/13 00:52:35;;;;;;;;;;;;;;;;;;5041205;28;19924;-89
2021/09/13 00:55:04;;;;;;;;;;;;;;;;;;5034549;28;19925;-90
2021/09/13 00:57:32;;;;;;;;;;;;;;;;;;5022352;28;19925;-89
2021/09/13 01:00:01;;;;;;;;;;;;;;;;;;5030903;28;19935;-89
2021/09/13 01:02:29;;;;;;;;;;;;;;;;;;5042012;28;19936;-91
2021/09/13 01:04:58;;;;;;;;;;;;;;;;;;5036829;28;19926;-89
2021/09/13 01:07:26;;;;;;;;;;;;;;;;;;5020306;28;19932;-89
2021/09/13 01:09:56;;;;;;;;;;;;;;;;;;5043811;28;19932;-90
2021/09/13 01:12:24;;;;;;;;;;;;;;;;;;5036223;28;20396;-87
2021/09/13 01:14:52;;;;;;;;;;;;;;;;;;5029484;28;20424;-89
2021/09/13 01:17:21;;;;;;;;;;;;;;;;;;5025224;28;19928;-88
2021/09/13 01:19:49;;;;;;;;;;;;;;;;;;5030193;28;19925;-86
2021/09/13 01:22:19;;;;;;;;;;;;;;;;;;5023794;28;19925;-90
2021/09/13 01:25:00;;;;;;;;;;;;;;;;;;5028786;28;20027;-89
2021/09/13 01:27:28;;;;;;;;;;;;;;;;;;5021114;28;20455;-89
2021/09/13 01:29:57;;;;;;;;;;;;;;;;;;5033776;28;19936;-90
2021/09/13 01:32:25;;;;;;;;;;;;;;;;;;5028353;28;20408;-89
2021/09/13 01:34:57;;;;;;;;;;;;;;;;;;5019430;28;19925;-88
2021/09/13 01:37:28;;;;;;;;;;;;;;;;;;5024843;28;19931;-88
2021/09/13 01:40:08;;;;;;;;;;;;;;;;;;5021121;28;19925;-90
2021/09/13 01:42:36;;;;;;;;;;;;;;;;;;5029404;28;20460;-88
2021/09/13 01:45:06;;;;;;;;;;;;;;;;;;5040455;28;19928;-89
2021/09/13 01:47:39;;;;;;;;;;;;;;;;;;5025670;28;19925;-87
2021/09/13 01:50:08;;;;;;;;;;;;;;;;;;5019491;28;19931;-87
2021/09/13 01:52:36;;;;;;;;;;;;;;;;;;5024262;28;19929;-88
2021/09/13 01:55:04;;;;;;;;;;;;;;;;;;5037458;28;20387;-87
2021/09/13 01:57:34;;;;;;;;;;;;;;;;;;5026451;28;19936;-87
2021/09/13 02:00:02;;;;;;;;;;;;;;;;;;5029432;28;19925;-89
2021/09/13 02:02:41;;;;;;;;;;;;;;;;;;5033410;28;20389;-88
2021/09/13 02:05:16;;;;;;;;;;;;;;;;;;5032745;28;20332;-88
2021/09/13 02:07:49;;;;;;;;;;;;;;;;;;5018091;28;19929;-90
2021/09/13 02:10:18;;;;;;;;;;;;;;;;;;5018734;28;20290;-87
2021/09/13 02:12:47;;;;;;;;;;;;;;;;;;5030127;28;19924;-87
2021/09/13 02:15:16;;;;;;;;;;;;;;;;;;5019144;28;19925;-89
2021/09/13 02:17:45;;;;;;;;;;;;;;;;;;5041659;28;19936;-88
2021/09/13 02:20:15;;;;;;;;;;;;;;;;;;5021000;28;19936;-90
2021/09/13 02:22:43;;;;;;;;;;;;;;;;;;5019000;28;19925;-88
2021/09/13 02:25:11;;;;;;;;;;;;;;;;;;5028460;28;20388;-88
2021/09/13 02:27:41;;;;;;;;;;;;;;;;;;5023831;28;20304;-89
2021/09/13 02:30:11;;;;;;;;;;;;;;;;;;5045379;28;19932;-89
2021/09/13 02:32:40;;;;;;;;;;;;;;;;;;5019381;28;19925;-89
2021/09/13 02:35:09;;;;;;;;;;;;;;;;;;5022069;28;19935;-89
2021/09/13 02:37:37;;;;;;;;;;;;;;;;;;5022797;28;20344;-89
2021/09/13 02:40:06;;;;;;;;;;;;;;;;;;5027064;28;19925;-88
2021/09/13 02:42:35;;;;;;;;;;;;;;;;;;5027397;28;19944;-89
2021/09/13 02:45:04;;;;;;;;;;;;;;;;;;5029478;28;19929;-90
2021/09/13 02:47:34;;;;;;;;;;;;;;;;;;5033319;28;19936;-90
2021/09/13 02:50:03;;;;;;;;;;;;;;;;;;5022742;28;19960;-93
2021/09/13 02:52:32;;;;;;;;;;;;;;;;;;5022803;28;19925;-91
2021/09/13 02:55:00;;;;;;;;;;;;;;;;;;5044839;28;19925;-91
2021/09/13 02:57:29;;;;;;;;;;;;;;;;;;5053522;28;19935;-91
2021/09/13 02:59:57;;;;;;;;;;;;;;;;;;5024368;28;19925;-91
2021/09/13 03:02:25;;;;;;;;;;;;;;;;;;5033101;28;19925;-90
2021/09/13 03:04:55;;;;;;;;;;;;;;;;;;5029824;28;19929;-91
2021/09/13 03:07:23;;;;;;;;;;;;;;;;;;5026619;28;20545;-90
2021/09/13 03:09:51;;;;;;;;;;;;;;;;;;5043212;28;19951;-89
2021/09/13 03:12:20;;;;;;;;;;;;;;;;;;5028621;28;20008;-90
2021/09/13 03:14:48;;;;;;;;;;;;;;;;;;5014113;28;20405;-90
2021/09/13 03:17:16;;;;;;;;;;;;;;;;;;5028463;28;19932;-90
2021/09/13 03:19:44;;;;;;;;;;;;;;;;;;5021503;28;19925;-91
2021/09/13 03:22:15;;;;;;;;;;;;;;;;;;5024477;28;20312;-91
2021/09/13 03:24:43;;;;;;;;;;;;;;;;;;5041111;28;19929;-90
2021/09/13 03:27:12;;;;;;;;;;;;;;;;;;5025984;28;19936;-91
2021/09/13 03:29:40;;;;;;;;;;;;;;;;;;5025849;28;19929;-91
2021/09/13 03:32:08;;;;;;;;;;;;;;;;;;5022479;28;19935;-91
2021/09/13 03:34:37;;;;;;;;;;;;;;;;;;5026545;28;20308;-89
2021/09/13 03:37:05;;;;;;;;;;;;;;;;;;5029135;28;19936;-90
2021/09/13 03:39:37;;;;;;;;;;;;;;;;;;5028309;28;20408;-90
2021/09/13 03:42:05;;;;;;;;;;;;;;;;;;5034877;28;19952;-92
2021/09/13 03:44:33;;;;;;;;;;;;;;;;;;5025527;28;19940;-91
2021/09/13 03:47:18;;;;;;;;;;;;;;;;;;5030313;28;19932;-90
2021/09/13 03:49:50;;;;;;;;;;;;;;;;;;5021422;28;19932;-91
2021/09/13 03:52:19;;;;;;;;;;;;;;;;;;5018506;28;19925;-90
2021/09/13 03:54:48;;;;;;;;;;;;;;;;;;5020043;28;19966;-91
2021/09/13 03:57:16;;;;;;;;;;;;;;;;;;5024258;28;20396;-90
2021/09/13 03:59:45;;;;;;;;;;;;;;;;;;5025700;28;20427;-91
2021/09/13 04:02:13;;;;;;;;;;;;;;;;;;5020209;28;19932;-91
2021/09/13 04:04:44;;;;;;;;;;;;;;;;;;5016304;28;19924;-91
2021/09/13 04:07:18;;;;;;;;;;;;;;;;;;5046829;28;19932;-92
2021/09/13 04:10:17;;;;;;;;;;;;;;;;;;5023279;28;20424;-91
2021/09/13 04:13:08;;;;;;;;;;;;;;;;;;5049111;28;19925;-91
2021/09/13 04:15:55;;;;;;;;;;;;;;;;;;5029916;28;19933;-91
2021/09/13 04:18:47;;;;;;;;;;;;;;;;;;5042207;28;20388;-90
2021/09/13 04:21:30;;;;;;;;;;;;;;;;;;5027554;28;19925;-90
2021/09/13 04:24:17;;;;;;;;;;;;;;;;;;5031775;28;19936;-90
2021/09/13 04:27:13;;;;;;;;;;;;;;;;;;5021960;28;19924;-91
2021/09/13 04:29:57;;;;;;;;;;;;;;;;;;5050545;28;19925;-91
2021/09/13 04:32:31;;;;;;;;;;;;;;;;;;5059987;28;19931;-91
2021/09/13 04:35:18;;;;;;;;;;;;;;;;;;5061172;28;19913;-90
2021/09/13 04:38:05;;;;;;;;;;;;;;;;;;5063969;28;19925;-90
2021/09/13 04:40:52;;;;;;;;;;;;;;;;;;5062655;28;19913;-91
2021/09/13 04:43:48;;;;;;;;;;;;;;;;;;5038204;28;19929;-91
2021/09/13 04:46:27;;;;;;;;;;;;;;;;;;5025728;28;19936;-89
2021/09/13 04:49:18;;;;;;;;;;;;;;;;;;5029918;28;20007;-91
2021/09/13 04:51:58;;;;;;;;;;;;;;;;;;5042401;28;19932;-91
2021/09/13 04:54:41;;;;;;;;;;;;;;;;;;5029099;28;20526;-91
2021/09/13 04:57:09;;;;;;;;;;;;;;;;;;5049623;28;20607;-92
2021/09/13 04:59:39;;;;;;;;;;;;;;;;;;5029478;28;19925;-90
2021/09/13 05:02:08;;;;;;;;;;;;;;;;;;5031639;28;19929;-90
2021/09/13 05:04:39;;;;;;;;;;;;;;;;;;5021469;28;19926;-91
2021/09/13 05:07:09;;;;;;;;;;;;;;;;;;5032661;28;19932;-90
2021/09/13 05:09:38;;;;;;;;;;;;;;;;;;5026027;28;19929;-90
2021/09/13 05:12:07;;;;;;;;;;;;;;;;;;5026851;28;19932;-91
2021/09/13 05:14:37;;;;;;;;;;;;;;;;;;5013895;28;20219;-91
2021/09/13 05:17:07;;;;;;;;;;;;;;;;;;5025714;28;19929;-91
2021/09/13 05:19:36;;;;;;;;;;;;;;;;;;5016843;28;20528;-90
2021/09/13 05:22:04;;;;;;;;;;;;;;;;;;5032305;28;19925;-91
2021/09/13 05:24:34;;;;;;;;;;;;;;;;;;5026981;28;19925;-91
2021/09/13 05:27:07;;;;;;;;;;;;;;;;;;5033486;28;20393;-90
2021/09/13 05:29:36;;;;;;;;;;;;;;;;;;5015605;28;19929;-91
2021/09/13 05:32:05;;;;;;;;;;;;;;;;;;5027066;28;19929;-91
2021/09/13 05:34:38;;;;;;;;;;;;;;;;;;5022440;28;19925;-93
2021/09/13 05:37:06;;;;;;;;;;;;;;;;;;5026787;28;20424;-92
2021/09/13 05:39:35;;;;;;;;;;;;;;;;;;5031435;28;19933;-94
2021/09/13 05:42:08;;;;;;;;;;;;;;;;;;5048780;28;19932;-91
2021/09/13 05:44:41;;;;;;;;;;;;;;;;;;5035177;28;20369;-93
2021/09/13 05:47:10;;;;;;;;;;;;;;;;;;5047545;28;20919;-91
2021/09/13 05:49:41;;;;;;;;;;;;;;;;;;5020779;28;19936;-94
2021/09/13 05:52:16;;;;;;;;;;;;;;;;;;5025927;28;19925;-93
2021/09/13 05:54:47;;;;;;;;;;;;;;;;;;5038405;28;19940;-93
2021/09/13 05:57:16;;;;;;;;;;;;;;;;;;5031743;28;19929;-93
2021/09/13 05:59:47;;;;;;;;;;;;;;;;;;5021499;28;19939;-93
2021/09/13 06:02:17;;;;;;;;;;;;;;;;;;5036280;28;19925;-93
2021/09/13 06:05:00;;;;;;;;;;;;;;;;;;5025881;28;20339;-92
2021/09/13 06:07:29;;;;;;;;;;;;;;;;;;5025223;28;19932;-93
2021/09/13 06:09:57;;;;;;;;;;;;;;;;;;5031651;28;19936;-93
2021/09/13 06:12:26;;;;;;;;;;;;;;;;;;5039176;28;19935;-93
2021/09/13 06:14:59;;;;;;;;;;;;;;;;;;5037642;28;19931;-90
2021/09/13 06:17:32;;;;;;;;;;;;;;;;;;5037779;28;19932;-91
2021/09/13 06:20:02;;;;;;;;;;;;;;;;;;5023089;28;19925;-92
2021/09/13 06:22:31;;;;;;;;;;;;;;;;;;5017870;28;19936;-90
2021/09/13 06:25:05;;;;;;;;;;;;;;;;;;5017604;28;19940;-88
2021/09/13 06:27:35;;;;;;;;;;;;;;;;;;5005055;28;20713;-88
2021/09/13 06:30:05;;;;;;;;;;;;;;;;;;5031654;28;19925;-94
2021/09/13 06:32:33;;;;;;;;;;;;;;;;;;5023553;28;19932;-91
2021/09/13 06:35:04;;;;;;;;;;;;;;;;;;5010261;28;20294;-90
2021/09/13 06:37:46;;;;;;;;;;;;;;;;;;5023505;28;19925;-90
2021/09/13 06:40:15;;;;;;;;;;;;;;;;;;5016659;28;19925;-89
2021/09/13 06:42:43;;;;;;;;;;;;;;;;;;5025788;28;19929;-91
2021/09/13 06:45:19;;;;;;;;;;;;;;;;;;5022824;28;19940;-92
2021/09/13 06:47:47;;;;;;;;;;;;;;;;;;5012886;28;19926;-91
2021/09/13 06:50:19;;;;;;;;;;;;;;;;;;5010866;28;19929;-92
2021/09/13 06:52:51;;;;;;;;;;;;;;;;;;5021322;28;20313;-92
2021/09/13 06:55:20;;;;;;;;;;;;;;;;;;5030430;28;19913;-91
2021/09/13 06:57:49;;;;;;;;;;;;;;;;;;5020098;28;19933;-91
2021/09/13 07:00:19;;;;;;;;;;;;;;;;;;5009242;28;19929;-90
2021/09/13 07:02:48;;;;;;;;;;;;;;;;;;5017028;28;20522;-92
2021/09/13 07:05:19;;;;;;;;;;;;;;;;;;5019637;28;19913;-92
2021/09/13 07:07:48;;;;;;;;;;;;;;;;;;5011236;28;19936;-90
2021/09/13 07:10:19;;;;;;;;;;;;;;;;;;5022795;28;19936;-90
2021/09/13 07:13:01;;;;;;;;;;;;;;;;;;5017720;28;20308;-92
2021/09/13 07:15:30;;;;;;;;;;;;;;;;;;5018352;28;19932;-91
2021/09/13 07:18:02;;;;;;;;;;;;;;;;;;5028912;28;19925;-92
2021/09/13 07:20:33;;;;;;;;;;;;;;;;;;5022027;28;20317;-93
2021/09/13 07:23:01;;;;;;;;;;;;;;;;;;5023840;28;20405;-91
2021/09/13 07:25:29;;;;;;;;;;;;;;;;;;5018348;28;19929;-91
2021/09/13 07:27:58;;;;;;;;;;;;;;;;;;5032979;28;19936;-92
2021/09/13 07:30:27;;;;;;;;;;;;;;;;;;5028196;28;19929;-92
2021/09/13 07:32:55;;;;;;;;;;;;;;;;;;5016963;28;19925;-93
2021/09/13 07:35:24;;;;;;;;;;;;;;;;;;5013955;28;19943;-92
2021/09/13 07:37:54;;;;;;;;;;;;;;;;;;5018576;28;19940;-91
2021/09/13 07:40:22;;;;;;;;;;;;;;;;;;5012634;28;19932;-91
2021/09/13 07:42:50;;;;;;;;;;;;;;;;;;5017320;28;19932;-92
2021/09/13 07:45:18;;;;;;;;;;;;;;;;;;5019267;28;19925;-91
2021/09/13 07:47:47;;;;;;;;;;;;;;;;;;5024148;28;20428;-90
2021/09/13 07:50:15;;;;;;;;;;;;;;;;;;5014952;28;20176;-91
2021/09/13 07:52:44;;;;;;;;;;;;;;;;;;5013667;28;19929;-91
2021/09/13 07:55:13;;;;;;;;;;;;;;;;;;5023774;28;20389;-89
2021/09/13 07:57:42;;;;;;;;;;;;;;;;;;5024722;28;20412;-91
2021/09/13 08:00:12;;;;;;;;;;;;;;;;;;5022001;28;20320;-90
2021/09/13 08:02:41;;;;;;;;;;;;;;;;;;5025097;28;19932;-91
2021/09/13 08:05:10;;;;;;;;;;;;;;;;;;5033656;28;19925;-89
2021/09/13 08:07:38;;;;;;;;;;;;;;;;;;5025521;28;19929;-91
2021/09/13 08:10:07;;;;;;;;;;;;;;;;;;5034678;28;19933;-91
2021/09/13 08:12:37;;;;;;;;;;;;;;;;;;5025608;28;19925;-91
2021/09/13 08:15:06;;;;;;;;;;;;;;;;;;5006412;28;20484;-92
2021/09/13 08:17:34;;;;;;;;;;;;;;;;;;5019886;28;20338;-90
2021/09/13 08:20:06;;;;;;;;;;;;;;;;;;5030476;28;19936;-92
2021/09/13 08:22:35;;;;;;;;;;;;;;;;;;5030279;28;19931;-91
2021/09/13 08:25:04;;;;;;;;;;;;;;;;;;5051650;28;20293;-91
2021/09/13 08:27:56;;;;;;;;;;;;;;;;;;5035435;28;19940;-86
2021/09/13 08:30:26;;;;;;;;;;;;;;;;;;5018631;28;20377;-91
2021/09/13 08:32:56;;;;;;;;;;;;;;;;;;5007687;28;19929;-87
2021/09/13 08:35:25;;;;;;;;;;;;;;;;;;5016665;28;19948;-88
2021/09/13 08:37:53;;;;;;;;;;;;;;;;;;5032118;28;19936;-91
2021/09/13 08:40:21;;;;;;;;;;;;;;;;;;5017299;28;20321;-92
2021/09/13 08:42:51;;;;;;;;;;;;;;;;;;5021281;28;19925;-90
2021/09/13 08:45:28;;;;;;;;;;;;;;;;;;5007826;28;19934;-91
2021/09/13 08:48:04;;;;;;;;;;;;;;;;;;4996276;28;19936;-93
2021/09/13 08:50:40;;;;;;;;;;;;;;;;;;5003977;28;19926;-92
2021/09/13 08:53:13;;;;;;;;;;;;;;;;;;5017079;28;19925;-91
2021/09/13 08:55:41;;;;;;;;;;;;;;;;;;5005749;28;20401;-91
2021/09/13 08:58:10;;;;;;;;;;;;;;;;;;4998229;28;20306;-94
2021/09/13 09:00:40;;;;;;;;;;;;;;;;;;5013741;28;19940;-91
2021/09/13 09:03:08;;;;;;;;;;;;;;;;;;4987304;28;19933;-90
2021/09/13 09:05:41;;;;;;;;;;;;;;;;;;4995091;28;20830;-91
2021/09/13 09:08:10;;;;;;;;;;;;;;;;;;5005486;28;19929;-91
2021/09/13 09:10:39;;;;;;;;;;;;;;;;;;5000499;28;19940;-90
2021/09/13 09:13:11;;;;;;;;;;;;;;;;;;5017023;28;19926;-89
2021/09/13 09:15:53;;;;;;;;;;;;;;;;;;5007106;28;19932;-87
2021/09/13 09:18:23;;;;;;;;;;;;;;;;;;4990630;28;19952;-90
2021/09/13 09:20:52;;;;;;;;;;;;;;;;;;5008136;28;19944;-89
2021/09/13 09:23:20;;;;;;;;;;;;;;;;;;4986614;28;19940;-90
2021/09/13 09:25:48;;;;;;;;;;;;;;;;;;5013024;28;19952;-90
2021/09/13 09:28:18;;;;;;;;;;;;;;;;;;5011116;28;20331;-90
2021/09/13 09:30:49;;;;;;;;;;;;;;;;;;4993522;28;19929;-88
2021/09/13 09:33:18;;;;;;;;;;;;;;;;;;4988954;28;19933;-90
2021/09/13 09:35:47;;;;;;;;;;;;;;;;;;5010480;28;19932;-90
2021/09/13 09:38:30;;;;;;;;;;;;;;;;;;5009110;28;19932;-90
2021/09/13 09:41:00;;;;;;;;;;;;;;;;;;5014026;28;19933;-93
2021/09/13 09:43:29;;;;;;;;;;;;;;;;;;5007381;28;19933;-89
2021/09/13 09:46:00;;;;;;;;;;;;;;;;;;5012394;28;19940;-90
2021/09/13 09:48:33;;;;;;;;;;;;;;;;;;5046859;28;20597;-92
2021/09/13 09:55:04;;;;;;;;;;;;;;;;;;727637;22;21535;-89
2021/09/13 09:57:33;;;;;;;;;;;;;;;;;;5052732;28;19947;-92
2021/09/13 10:00:01;;;;;;;;;;;;;;;;;;5057588;22;19929;-87
2021/09/13 10:02:43;;;;;;;;;;;;;;;;;;5038188;28;19925;-88
2021/09/13 10:05:11;;;;;;;;;;;;;;;;;;5009050;28;19926;-87
2021/09/13 10:07:43;;;;;;;;;;;;;;;;;;5032225;28;20394;-86
2021/09/13 10:10:11;;;;;;;;;;;;;;;;;;5021566;28;19925;-86
2021/09/13 10:12:40;;;;;;;;;;;;;;;;;;5020979;28;20362;-87
2021/09/13 10:15:09;;;;;;;;;;;;;;;;;;5020616;28;19925;-86
2021/09/13 10:17:37;;;;;;;;;;;;;;;;;;5008395;28;20326;-85
2021/09/13 10:20:08;;;;;;;;;;;;;;;;;;5012819;28;20103;-84
2021/09/13 10:22:37;;;;;;;;;;;;;;;;;;5027730;28;20307;-84
2021/09/13 10:25:07;;;;;;;;;;;;;;;;;;5013212;28;20033;-84
2021/09/13 10:27:36;;;;;;;;;;;;;;;;;;5004400;28;19933;-84
2021/09/13 10:30:13;;;;;;;;;;;;;;;;;;5005987;28;19929;-84
2021/09/13 10:32:42;;;;;;;;;;;;;;;;;;5024614;28;19926;-84
2021/09/13 10:35:13;;;;;;;;;;;;;;;;;;5044986;28;19929;-84
2021/09/13 10:37:42;;;;;;;;;;;;;;;;;;5006655;28;19929;-84
2021/09/13 10:40:10;;;;;;;;;;;;;;;;;;5011608;28;19931;-86
2021/09/13 10:42:40;;;;;;;;;;;;;;;;;;5019495;28;19940;-83
2021/09/13 10:45:10;;;;;;;;;;;;;;;;;;5012364;28;20347;-83
2021/09/13 10:47:39;;;;;;;;;;;;;;;;;;5035946;28;19924;-85
2021/09/13 10:50:26;;;;;;;;;;;;;;;;;;5043205;28;19936;-85
2021/09/13 10:52:54;;;;;;;;;;;;;;;;;;5029035;28;19925;-86
2021/09/13 10:55:30;;;;;;;;;;;;;;;;;;5027827;28;19925;-85
2021/09/13 10:58:01;;;;;;;;;;;;;;;;;;5040785;28;19925;-85
2021/09/13 11:00:50;;;;;;;;;;;;;;;;;;5035915;28;22639;-86
2021/09/13 11:03:32;;;;;;;;;;;;;;;;;;5027567;28;19936;-85
2021/09/13 11:06:20;;;;;;;;;;;;;;;;;;5016699;28;19925;-85
2021/09/13 11:09:00;;;;;;;;;;;;;;;;;;5022632;28;19929;-85
2021/09/13 11:11:30;;;;;;;;;;;;;;;;;;5022622;28;19929;-85
2021/09/13 11:13:58;;;;;;;;;;;;;;;;;;5023351;28;20379;-84
2021/09/13 11:16:27;;;;;;;;;;;;;;;;;;5011529;28;19929;-84
2021/09/13 11:18:59;;;;;;;;;;;;;;;;;;5052412;28;19935;-90
2021/09/13 11:21:29;;;;;;;;;;;;;;;;;;5025126;28;19933;-85
2021/09/13 11:24:01;;;;;;;;;;;;;;;;;;5003164;28;19933;-87
2021/09/13 11:26:30;;;;;;;;;;;;;;;;;;5023938;28;19929;-86
2021/09/13 11:29:00;;;;;;;;;;;;;;;;;;5022505;28;19929;-86
2021/09/13 11:31:33;;;;;;;;;;;;;;;;;;5011032;28;20470;-84
2021/09/13 11:34:05;;;;;;;;;;;;;;;;;;5009263;28;19925;-86
2021/09/13 11:36:34;;;;;;;;;;;;;;;;;;5029280;28;19925;-85
2021/09/13 11:39:06;;;;;;;;;;;;;;;;;;5019368;28;19932;-86
2021/09/13 11:41:35;;;;;;;;;;;;;;;;;;5007577;28;19928;-86
2021/09/13 11:44:06;;;;;;;;;;;;;;;;;;5018383;28;20663;-86
2021/09/13 11:46:50;;;;;;;;;;;;;;;;;;5019284;28;19937;-87
2021/09/13 11:49:22;;;;;;;;;;;;;;;;;;5008797;28;20019;-85
2021/09/13 11:52:05;;;;;;;;;;;;;;;;;;5009070;28;19932;-84
2021/09/13 11:54:41;;;;;;;;;;;;;;;;;;5026221;28;19925;-86
2021/09/13 11:57:21;;;;;;;;;;;;;;;;;;5030915;28;19925;-85
2021/09/13 11:59:52;;;;;;;;;;;;;;;;;;5024929;28;19932;-85
2021/09/13 12:06:07;;;;;;;;;;;;;;;;;;4995290;28;19932;-84
2021/09/13 12:08:50;;;;;;;;;;;;;;;;;;5020729;28;19940;-84
2021/09/13 12:11:47;;;;;;;;;;;;;;;;;;5039150;28;20003;-85
2021/09/13 12:19:09;;;;;;;;;;;;;;;;;;4997537;28;20527;-83
2021/09/13 12:23:11;;;;;;;;;;;;;;;;;;4911487;28;21024;-85
2021/09/13 12:30:22;;;;;;;;;;;;;;;;;;4844004;29;23358;-85
2021/09/13 12:39:33;;;;;;;;;;;;;;;;;;5028553;28;19923;-84
2021/09/13 12:45:08;;;;;;;;;;;;;;;;;;5018151;28;19936;-88
2021/09/13 12:48:00;;;;;;;;;;;;;;;;;;5000669;28;19952;-89
2021/09/13 12:50:33;;;;;;;;;;;;;;;;;;5025578;28;19929;-89
2021/09/13 12:53:02;;;;;;;;;;;;;;;;;;5026235;28;19925;-88
2021/09/13 12:55:40;;;;;;;;;;;;;;;;;;5013120;28;19941;-88
2021/09/13 12:58:30;;;;;;;;;;;;;;;;;;5027813;28;19932;-88
2021/09/13 13:01:04;;;;;;;;;;;;;;;;;;5008662;28;19932;-88
2021/09/13 13:03:34;;;;;;;;;;;;;;;;;;5028296;28;19925;-89
2021/09/13 13:06:15;;;;;;;;;;;;;;;;;;5035579;28;19935;-89
2021/09/13 13:08:51;;;;;;;;;;;;;;;;;;5045228;28;20381;-89
2021/09/13 13:11:30;;;;;;;;;;;;;;;;;;5025516;28;19929;-89
2021/09/13 13:13:59;;;;;;;;;;;;;;;;;;5015979;28;19925;-89
2021/09/13 13:28:34;;;;;;;;;;;;;;;;;;5011662;28;19925;-86
2021/09/13 13:31:03;;;;;;;;;;;;;;;;;;5026481;28;19932;-85
2021/09/13 13:33:32;;;;;;;;;;;;;;;;;;5028465;28;20318;-85
2021/09/13 13:36:03;;;;;;;;;;;;;;;;;;5024580;28;19932;-86
2021/09/13 13:38:41;;;;;;;;;;;;;;;;;;5051333;28;20202;-86
2021/09/13 13:41:13;;;;;;;;;;;;;;;;;;5015857;28;19925;-86
2021/09/13 13:43:49;;;;;;;;;;;;;;;;;;5048091;28;19913;-86
2021/09/13 13:46:21;;;;;;;;;;;;;;;;;;5032528;28;19915;-86
2021/09/13 13:48:55;;;;;;;;;;;;;;;;;;5046859;28;19925;-86
2021/09/13 13:51:25;;;;;;;;;;;;;;;;;;5004349;28;19935;-86
2021/09/13 13:54:01;;;;;;;;;;;;;;;;;;5015415;28;20386;-86
2021/09/13 13:56:32;;;;;;;;;;;;;;;;;;5050575;28;19925;-86
2021/09/13 13:59:07;;;;;;;;;;;;;;;;;;5019606;28;19925;-85
2021/09/13 14:01:50;;;;;;;;;;;;;;;;;;5053288;28;20371;-84
2021/09/13 14:04:46;;;;;;;;;;;;;;;;;;5045092;28;19933;-86
2021/09/13 14:07:24;;;;;;;;;;;;;;;;;;5015969;28;19932;-86
2021/09/13 14:09:53;;;;;;;;;;;;;;;;;;5015473;28;19936;-86
2021/09/13 14:12:22;;;;;;;;;;;;;;;;;;5063889;28;20318;-87
2021/09/13 14:14:54;;;;;;;;;;;;;;;;;;5048276;28;19929;-86
2021/09/13 14:17:35;;;;;;;;;;;;;;;;;;5028710;28;19929;-86
2021/09/13 14:20:10;;;;;;;;;;;;;;;;;;5046821;28;20180;-87
2021/09/13 14:23:06;;;;;;;;;;;;;;;;;;5047222;28;19928;-86
2021/09/13 14:26:03;;;;;;;;;;;;;;;;;;5030867;28;20299;-86
2021/09/13 14:28:46;;;;;;;;;;;;;;;;;;5012546;28;19926;-87
2021/09/13 14:31:38;;;;;;;;;;;;;;;;;;5013060;28;19924;-87
2021/09/13 14:34:07;;;;;;;;;;;;;;;;;;5014412;28;19929;-88
2021/09/13 14:36:35;;;;;;;;;;;;;;;;;;5035331;28;19932;-87
2021/09/13 14:39:04;;;;;;;;;;;;;;;;;;5028513;28;19924;-87
2021/09/13 14:41:33;;;;;;;;;;;;;;;;;;5027107;28;19933;-87
2021/09/13 14:44:01;;;;;;;;;;;;;;;;;;5025315;28;19925;-87
2021/09/13 14:46:31;;;;;;;;;;;;;;;;;;5030425;28;19928;-87
2021/09/13 14:49:04;;;;;;;;;;;;;;;;;;5030364;28;19925;-87
2021/09/13 14:51:32;;;;;;;;;;;;;;;;;;5013974;28;19924;-87
2021/09/13 14:54:03;;;;;;;;;;;;;;;;;;5048521;28;20379;-87
2021/09/13 14:56:32;;;;;;;;;;;;;;;;;;5030039;28;19924;-87
2021/09/13 14:59:01;;;;;;;;;;;;;;;;;;5029221;28;19975;-88
2021/09/13 15:01:30;;;;;;;;;;;;;;;;;;5024989;28;19929;-87
2021/09/13 15:03:59;;;;;;;;;;;;;;;;;;5021463;28;19939;-87
2021/09/13 15:06:32;;;;;;;;;;;;;;;;;;5048040;28;20390;-86
2021/09/13 15:09:01;;;;;;;;;;;;;;;;;;5015772;28;20303;-87
2021/09/13 15:11:30;;;;;;;;;;;;;;;;;;5011370;28;19933;-86
2021/09/13 15:14:01;;;;;;;;;;;;;;;;;;5013168;28;19925;-87
2021/09/13 15:16:38;;;;;;;;;;;;;;;;;;5029798;28;19936;-86
2021/09/13 15:19:07;;;;;;;;;;;;;;;;;;5007472;28;19948;-86
2021/09/13 15:21:36;;;;;;;;;;;;;;;;;;5027181;28;19936;-86
2021/09/13 15:24:05;;;;;;;;;;;;;;;;;;5008744;28;20302;-85
2021/09/13 15:26:34;;;;;;;;;;;;;;;;;;5041359;28;20500;-85
2021/09/13 15:29:03;;;;;;;;;;;;;;;;;;5003093;28;20380;-86
2021/09/13 15:31:31;;;;;;;;;;;;;;;;;;5046167;28;19925;-85
2021/09/13 15:34:00;;;;;;;;;;;;;;;;;;5013488;28;19925;-86
2021/09/13 15:36:28;;;;;;;;;;;;;;;;;;5031741;28;20100;-86
2021/09/13 15:38:58;;;;;;;;;;;;;;;;;;5059938;28;20173;-86
2021/09/13 15:41:26;;;;;;;;;;;;;;;;;;5029482;28;19925;-86
2021/09/13 15:43:55;;;;;;;;;;;;;;;;;;5028425;28;19933;-86
2021/09/13 15:46:23;;;;;;;;;;;;;;;;;;5028090;28;19925;-87
2021/09/13 15:48:51;;;;;;;;;;;;;;;;;;5027917;28;19925;-84
2021/09/13 15:51:19;;;;;;;;;;;;;;;;;;5013878;28;19932;-86
2021/09/13 15:53:48;;;;;;;;;;;;;;;;;;5018720;28;19956;-86
2021/09/13 15:56:17;;;;;;;;;;;;;;;;;;5020583;28;19940;-86
2021/09/13 15:58:46;;;;;;;;;;;;;;;;;;5023049;28;19925;-85
2021/09/13 16:01:14;;;;;;;;;;;;;;;;;;5028463;28;20387;-86
2021/09/13 16:03:43;;;;;;;;;;;;;;;;;;5014461;28;19940;-85
2021/09/13 16:06:12;;;;;;;;;;;;;;;;;;5035931;28;19929;-86
2021/09/13 16:08:40;;;;;;;;;;;;;;;;;;5040811;28;20426;-85
2021/09/13 16:11:09;;;;;;;;;;;;;;;;;;5051813;28;19913;-90
2021/09/13 16:13:38;;;;;;;;;;;;;;;;;;5061401;28;19941;-85
2021/09/13 16:16:07;;;;;;;;;;;;;;;;;;5049064;28;19936;-86
2021/09/13 16:18:35;;;;;;;;;;;;;;;;;;5027395;28;20310;-86
2021/09/13 16:21:03;;;;;;;;;;;;;;;;;;5048204;28;19925;-85
2021/09/13 16:23:32;;;;;;;;;;;;;;;;;;5036204;28;19939;-85
2021/09/13 16:26:04;;;;;;;;;;;;;;;;;;5044057;28;19929;-86
2021/09/13 16:28:32;;;;;;;;;;;;;;;;;;5034400;28;19932;-85
2021/09/13 16:31:02;;;;;;;;;;;;;;;;;;5027133;28;19936;-85
2021/09/13 16:33:30;;;;;;;;;;;;;;;;;;5014705;28;19932;-86
2021/09/13 16:35:58;;;;;;;;;;;;;;;;;;5017634;28;19929;-87
2021/09/13 16:38:41;;;;;;;;;;;;;;;;;;5052214;28;19928;-87
2021/09/13 16:41:09;;;;;;;;;;;;;;;;;;5020645;28;19925;-83
2021/09/13 16:43:38;;;;;;;;;;;;;;;;;;5016274;28;19925;-86
2021/09/13 16:46:08;;;;;;;;;;;;;;;;;;5016974;28;19925;-83
2021/09/13 16:48:36;;;;;;;;;;;;;;;;;;5047931;28;19932;-83
2021/09/13 16:51:05;;;;;;;;;;;;;;;;;;5032219;28;19928;-83
2021/09/13 16:53:33;;;;;;;;;;;;;;;;;;5023803;28;19989;-83
2021/09/13 16:56:04;;;;;;;;;;;;;;;;;;5016586;28;19925;-85
2021/09/13 16:58:35;;;;;;;;;;;;;;;;;;5039562;28;19936;-84
2021/09/13 17:01:05;;;;;;;;;;;;;;;;;;5039876;28;19932;-83
2021/09/13 17:03:35;;;;;;;;;;;;;;;;;;5054886;28;19924;-83
2021/09/13 17:06:04;;;;;;;;;;;;;;;;;;5019716;28;20410;-85
2021/09/13 17:08:32;;;;;;;;;;;;;;;;;;5015729;28;19925;-86
2021/09/13 17:11:01;;;;;;;;;;;;;;;;;;5017564;28;19925;-88
2021/09/13 17:13:29;;;;;;;;;;;;;;;;;;5052196;28;20375;-84
2021/09/13 17:15:59;;;;;;;;;;;;;;;;;;5054116;28;19933;-86
2021/09/13 17:18:28;;;;;;;;;;;;;;;;;;5045234;28;19925;-87
2021/09/13 17:20:58;;;;;;;;;;;;;;;;;;5018834;28;20066;-86
2021/09/13 17:23:26;;;;;;;;;;;;;;;;;;5019978;28;19929;-85
2021/09/13 17:25:54;;;;;;;;;;;;;;;;;;5030591;28;20304;-88
2021/09/13 17:28:24;;;;;;;;;;;;;;;;;;5042026;28;19925;-86
2021/09/13 17:30:52;;;;;;;;;;;;;;;;;;5015451;28;19948;-85
2021/09/13 17:33:21;;;;;;;;;;;;;;;;;;5050339;28;19928;-87
2021/09/13 17:35:50;;;;;;;;;;;;;;;;;;5009489;28;20405;-86
2021/09/13 17:38:19;;;;;;;;;;;;;;;;;;5018974;28;19925;-87
2021/09/13 17:40:48;;;;;;;;;;;;;;;;;;5016538;28;19924;-86
2021/09/13 17:43:16;;;;;;;;;;;;;;;;;;5032775;28;19931;-84
2021/09/13 17:45:44;;;;;;;;;;;;;;;;;;5017373;28;19937;-85
2021/09/13 17:48:13;;;;;;;;;;;;;;;;;;5032565;28;20499;-84
2021/09/13 17:50:41;;;;;;;;;;;;;;;;;;5032727;28;20413;-86
2021/09/13 17:53:09;;;;;;;;;;;;;;;;;;5044201;28;19932;-87
2021/09/13 17:55:39;;;;;;;;;;;;;;;;;;5014590;28;19924;-88